Time;durP1;ratioP1;P1;durP2;ratioP2;P2;SDS_P1;SDS_P2;PMS_P1;PMS_P2;Temp;Humidity;BMP_temperature;BMP_pressure;BME280_temperature;BME280_humidity;BME280_pressure;Samples;Min_cycle;Max_cycle;Signal;HPM_P1;HPM_P2
2022/10/04 00:01:18;;;;;;;18.58;6.20;;;9.00;99.90;;;;;;4934071;28;20035;-84
2022/10/04 00:03:48;;;;;;;11.40;6.07;;;8.80;99.90;;;;;;4948333;28;20502;-83
2022/10/04 00:06:18;;;;;;;11.68;5.95;;;8.90;99.90;;;;;;4925997;28;20392;-83
2022/10/04 00:08:49;;;;;;;12.32;6.07;;;8.90;99.90;;;;;;4949048;28;20456;-83
2022/10/04 00:11:34;;;;;;;11.93;5.88;;;9.00;99.90;;;;;;4949689;28;20061;-83
2022/10/04 00:14:17;;;;;;;12.13;6.10;;;9.00;99.90;;;;;;4959882;28;20031;-82
2022/10/04 00:16:45;;;;;;;11.60;6.15;;;9.10;99.90;;;;;;4947262;28;20089;-83
2022/10/04 00:19:13;;;;;;;13.70;7.00;;;9.10;99.90;;;;;;4930897;28;20114;-83
2022/10/04 00:21:52;;;;;;;8.32;6.47;;;9.00;99.90;;;;;;4962714;28;20078;-84
2022/10/04 00:24:27;;;;;;;14.27;5.78;;;9.10;99.90;;;;;;4960933;28;20034;-84
2022/10/04 00:27:19;;;;;;;14.45;6.57;;;9.10;99.90;;;;;;4958589;28;20054;-84
2022/10/04 00:30:09;;;;;;;13.48;6.15;;;9.10;99.90;;;;;;4954640;28;20058;-82
2022/10/04 00:32:40;;;;;;;10.57;6.90;;;9.00;99.90;;;;;;4948488;28;20043;-84
2022/10/04 00:35:26;;;;;;;6.72;5.28;;;9.00;99.90;;;;;;4958562;28;20672;-84
2022/10/04 00:37:59;;;;;;;13.68;6.82;;;9.10;99.90;;;;;;4957376;28;20117;-84
2022/10/04 00:40:49;;;;;;;11.98;6.22;;;9.10;99.90;;;;;;4956651;28;20031;-83
2022/10/04 00:43:15;;;;;;;10.65;6.18;;;9.10;99.90;;;;;;4924782;28;20400;-83
2022/10/04 00:45:46;;;;;;;9.20;4.95;;;9.10;99.90;;;;;;4924140;29;20260;-84
2022/10/04 00:48:27;;;;;;;13.68;5.45;;;9.10;99.90;;;;;;4954660;28;20035;-84
2022/10/04 00:50:59;;;;;;;15.85;6.43;;;9.10;99.90;;;;;;4958426;28;20039;-84
2022/10/04 00:53:46;;;;;;;14.13;6.30;;;9.10;99.90;;;;;;4942851;28;20039;-85
2022/10/04 00:56:14;;;;;;;12.63;6.53;;;9.00;99.90;;;;;;4957511;28;20027;-84
2022/10/04 00:58:57;;;;;;;13.55;6.70;;;8.90;99.90;;;;;;4922978;29;20471;-84
2022/10/04 01:01:23;;;;;;;14.98;6.50;;;8.80;99.90;;;;;;4952850;28;20027;-84
2022/10/04 01:03:48;;;;;;;11.13;5.93;;;8.80;99.90;;;;;;4946312;28;20086;-84
2022/10/04 01:06:14;;;;;;;15.82;6.63;;;8.80;99.90;;;;;;4924842;29;20059;-84
2022/10/04 01:08:44;;;;;;;12.65;6.90;;;8.80;99.90;;;;;;4944535;28;20106;-84
2022/10/04 01:11:17;;;;;;;19.33;7.10;;;8.80;99.90;;;;;;4937219;28;20023;-84
2022/10/04 01:14:11;;;;;;;8.02;4.20;;;8.90;99.90;;;;;;4933948;28;20035;-84
2022/10/04 01:16:37;;;;;;;8.07;4.10;;;8.90;99.90;;;;;;4956623;28;20027;-81
2022/10/04 01:19:31;;;;;;;11.52;6.25;;;8.90;99.90;;;;;;4946486;28;20368;-80
2022/10/04 01:21:58;;;;;;;14.50;6.25;;;8.90;99.90;;;;;;4960394;28;20063;-80
2022/10/04 01:24:23;;;;;;;9.57;6.53;;;8.80;99.90;;;;;;4944775;28;20023;-80
2022/10/04 01:26:49;;;;;;;12.18;6.60;;;8.80;99.90;;;;;;4942376;28;20052;-80
2022/10/04 01:29:17;;;;;;;13.77;7.10;;;8.80;99.90;;;;;;4970180;28;20086;-80
2022/10/04 01:31:44;;;;;;;27.35;7.45;;;8.80;99.90;;;;;;4961377;28;20093;-80
2022/10/04 01:34:14;;;;;;;8.73;6.55;;;8.80;99.90;;;;;;4945351;28;20039;-81
2022/10/04 01:36:40;;;;;;;16.08;7.00;;;8.80;99.90;;;;;;4913719;29;20043;-80
2022/10/04 01:39:05;;;;;;;10.15;5.53;;;8.90;99.90;;;;;;4935850;28;20515;-80
2022/10/04 01:41:40;;;;;;;18.48;6.88;;;9.00;99.90;;;;;;4947443;28;20073;-80
2022/10/04 01:44:05;;;;;;;14.70;7.70;;;9.00;99.90;;;;;;4961095;28;20031;-80
2022/10/04 01:46:33;;;;;;;14.55;7.75;;;8.90;99.90;;;;;;4940482;28;20042;-80
2022/10/04 01:49:00;;;;;;;16.45;7.28;;;8.80;99.90;;;;;;4950001;28;20486;-80
2022/10/04 01:51:28;;;;;;;11.75;6.45;;;8.80;99.90;;;;;;4942518;28;20575;-81
2022/10/04 01:53:58;;;;;;;12.68;6.72;;;8.80;99.90;;;;;;4945093;28;20067;-80
2022/10/04 01:56:26;;;;;;;16.73;6.70;;;8.70;99.90;;;;;;4958073;28;20508;-80
2022/10/04 01:58:57;;;;;;;13.15;7.43;;;8.60;99.90;;;;;;4944214;28;20129;-80
2022/10/04 02:01:27;;;;;;;15.93;7.20;;;8.70;99.90;;;;;;4930351;28;20554;-80
2022/10/04 02:04:14;;;;;;;9.07;5.93;;;8.70;99.90;;;;;;4932860;28;20031;-80
2022/10/04 02:06:41;;;;;;;7.45;4.90;;;8.80;99.90;;;;;;4943033;28;20026;-80
2022/10/04 02:09:30;;;;;;;8.15;4.82;;;8.90;99.90;;;;;;4943726;28;20146;-80
2022/10/04 02:11:57;;;;;;;10.95;6.18;;;8.80;99.90;;;;;;4946021;28;20031;-80
2022/10/04 02:14:27;;;;;;;11.35;6.65;;;8.70;99.90;;;;;;4936780;28;20036;-80
2022/10/04 02:16:53;;;;;;;17.42;6.95;;;8.60;99.90;;;;;;4955276;28;20036;-80
2022/10/04 02:19:21;;;;;;;13.77;6.70;;;8.60;99.90;;;;;;4939709;28;20042;-80
2022/10/04 02:21:47;;;;;;;6.43;4.18;;;8.60;99.90;;;;;;4930633;28;20090;-81
2022/10/04 02:24:12;;;;;;;5.95;4.00;;;8.60;99.90;;;;;;4936511;28;20488;-80
2022/10/04 02:26:38;;;;;;;5.57;4.63;;;8.70;99.90;;;;;;4923396;28;20035;-80
2022/10/04 02:29:03;;;;;;;9.88;4.43;;;8.70;99.90;;;;;;4924319;28;20183;-80
2022/10/04 02:34:13;;;;;;;9.15;6.78;;;8.90;99.90;;;;;;4952530;28;20046;-80
2022/10/04 02:36:39;;;;;;;11.35;6.40;;;8.80;99.90;;;;;;4930504;28;20040;-81
2022/10/04 02:39:26;;;;;;;13.38;6.97;;;8.80;99.90;;;;;;4939313;28;20446;-81
2022/10/04 02:41:56;;;;;;;15.38;7.50;;;8.70;99.90;;;;;;4957208;28;20078;-80
2022/10/04 02:44:30;;;;;;;13.02;7.55;;;8.70;99.90;;;;;;4930134;28;20479;-80
2022/10/04 02:47:16;;;;;;;11.98;7.15;;;8.70;99.90;;;;;;4927755;28;20035;-80
2022/10/04 02:49:48;;;;;;;19.02;7.63;;;8.70;99.90;;;;;;4934674;28;20040;-80
2022/10/04 02:52:30;;;;;;;14.40;7.68;;;8.80;99.90;;;;;;4930888;28;20115;-80
2022/10/04 02:55:01;;;;;;;11.93;6.70;;;8.80;99.90;;;;;;4931282;28;20050;-80
2022/10/04 02:57:27;;;;;;;10.50;5.72;;;8.90;99.90;;;;;;4937614;28;20071;-80
2022/10/04 03:00:09;;;;;;;13.27;6.75;;;9.00;99.90;;;;;;4940328;28;20040;-80
2022/10/04 03:02:35;;;;;;;18.65;7.45;;;8.90;99.90;;;;;;4941485;28;20035;-81
2022/10/04 03:05:08;;;;;;;12.77;9.13;;;8.80;99.90;;;;;;4932094;28;20031;-80
2022/10/04 03:07:35;;;;;;;13.75;7.47;;;8.80;99.90;;;;;;4922824;28;20035;-81
2022/10/04 03:10:01;;;;;;;17.95;7.78;;;8.70;99.90;;;;;;4939957;28;20399;-80
2022/10/04 03:12:26;;;;;;;15.23;7.82;;;8.60;99.90;;;;;;4930071;28;20035;-80
2022/10/04 03:14:53;;;;;;;9.05;6.10;;;8.60;99.90;;;;;;4938464;28;20030;-80
2022/10/04 03:17:18;;;;;;;12.88;7.53;;;8.60;99.90;;;;;;4941491;28;20031;-81
2022/10/04 03:19:46;;;;;;;13.68;6.60;;;8.70;99.90;;;;;;4926437;28;20500;-80
2022/10/04 03:22:12;;;;;;;14.75;6.35;;;8.70;99.90;;;;;;4939049;28;20027;-80
2022/10/04 03:24:48;;;;;;;10.07;6.30;;;8.70;99.90;;;;;;4944396;28;20027;-80
2022/10/04 03:27:21;;;;;;;12.60;7.63;;;8.60;99.90;;;;;;4960326;28;20031;-81
2022/10/04 03:29:49;;;;;;;12.10;7.07;;;8.60;99.90;;;;;;4940622;28;20388;-80
2022/10/04 03:32:15;;;;;;;17.15;8.50;;;8.60;99.90;;;;;;4943300;28;20043;-80
2022/10/04 03:34:42;;;;;;;15.77;8.00;;;8.60;99.90;;;;;;4922510;28;20043;-80
2022/10/04 03:37:14;;;;;;;15.85;7.90;;;8.70;99.90;;;;;;4958104;28;20042;-80
2022/10/04 03:39:44;;;;;;;18.52;8.02;;;8.70;99.90;;;;;;4944930;28;20035;-80
2022/10/04 03:42:14;;;;;;;16.15;7.28;;;8.60;99.90;;;;;;4955943;28;20043;-80
2022/10/04 03:44:40;;;;;;;17.25;8.32;;;8.60;99.90;;;;;;4925160;28;20039;-80
2022/10/04 03:47:10;;;;;;;9.88;6.15;;;8.60;99.90;;;;;;4938193;28;20720;-80
2022/10/04 03:49:36;;;;;;;14.93;7.30;;;8.50;99.90;;;;;;4941489;28;20039;-80
2022/10/04 03:52:02;;;;;;;12.57;7.57;;;8.60;99.90;;;;;;4931123;28;20031;-80
2022/10/04 03:54:27;;;;;;;13.85;7.38;;;8.50;99.90;;;;;;4928258;28;20044;-80
2022/10/04 03:56:53;;;;;;;16.20;7.45;;;8.40;99.90;;;;;;4928892;28;20138;-80
2022/10/04 03:59:19;;;;;;;14.60;8.38;;;8.50;99.90;;;;;;4938170;28;20032;-80
2022/10/04 04:02:07;;;;;;;17.33;8.73;;;8.50;99.90;;;;;;4940054;28;20032;-80
2022/10/04 04:04:45;;;;;;;21.70;8.25;;;8.50;99.90;;;;;;4933135;28;20495;-80
2022/10/04 04:07:21;;;;;;;15.52;7.45;;;8.50;99.90;;;;;;4960393;28;20050;-80
2022/10/04 04:10:06;;;;;;;13.60;7.95;;;8.40;99.90;;;;;;4943387;28;20402;-79
2022/10/04 04:12:48;;;;;;;16.20;7.80;;;8.40;99.90;;;;;;4959088;28;20499;-83
2022/10/04 04:15:14;;;;;;;16.83;8.75;;;8.40;99.90;;;;;;4950084;28;20859;-83
2022/10/04 04:17:46;;;;;;;15.45;8.85;;;8.40;99.90;;;;;;4943617;28;20190;-83
2022/10/04 04:20:19;;;;;;;20.02;8.43;;;8.40;99.90;;;;;;4955627;28;20486;-83
2022/10/04 04:22:51;;;;;;;15.75;8.20;;;8.40;99.90;;;;;;4946348;28;20058;-83
2022/10/04 04:25:17;;;;;;;16.85;7.97;;;8.30;99.90;;;;;;4935980;28;20039;-83
2022/10/04 04:27:43;;;;;;;20.33;8.90;;;8.30;99.90;;;;;;4926874;28;20174;-83
2022/10/04 04:30:14;;;;;;;13.57;8.65;;;8.30;99.90;;;;;;4957633;28;20054;-82
2022/10/04 04:32:40;;;;;;;15.13;8.38;;;8.40;99.90;;;;;;4925653;28;20175;-82
2022/10/04 04:35:07;;;;;;;13.98;9.43;;;8.30;99.90;;;;;;4938159;28;20102;-82
2022/10/04 04:37:36;;;;;;;18.90;9.38;;;8.40;99.90;;;;;;4920911;28;20436;-84
2022/10/04 04:40:18;;;;;;;16.60;9.15;;;8.30;99.90;;;;;;4943999;28;20401;-84
2022/10/04 04:42:44;;;;;;;20.58;9.63;;;8.40;99.90;;;;;;4917732;28;20443;-83
2022/10/04 04:45:15;;;;;;;17.48;9.07;;;8.30;99.90;;;;;;4956273;28;20097;-82
2022/10/04 04:47:43;;;;;;;17.63;9.75;;;8.30;99.90;;;;;;4937500;28;21562;-83
2022/10/04 04:50:16;;;;;;;15.15;8.80;;;8.40;99.90;;;;;;4934100;28;20036;-83
2022/10/04 04:52:44;;;;;;;11.77;8.27;;;8.30;99.90;;;;;;4936275;28;20043;-83
2022/10/04 04:55:21;;;;;;;19.85;8.93;;;8.40;99.90;;;;;;4945399;28;20042;-83
2022/10/04 04:57:47;;;;;;;16.50;8.48;;;8.40;99.90;;;;;;4936579;28;20078;-82
2022/10/04 05:00:19;;;;;;;16.23;8.75;;;8.40;99.90;;;;;;4937514;28;20035;-82
2022/10/04 05:02:58;;;;;;;14.10;9.55;;;8.40;99.90;;;;;;4926535;28;20082;-82
2022/10/04 05:05:25;;;;;;;20.95;10.68;;;8.40;99.90;;;;;;4933394;28;20066;-83
2022/10/04 05:08:13;;;;;;;15.20;8.57;;;8.40;99.90;;;;;;4944656;28;20091;-83
2022/10/04 05:10:45;;;;;;;9.45;5.55;;;8.40;99.90;;;;;;4934986;28;20043;-83
2022/10/04 05:13:10;;;;;;;11.20;7.32;;;8.40;99.90;;;;;;4953499;28;24621;-83
2022/10/04 05:15:38;;;;;;;16.58;8.25;;;8.60;99.90;;;;;;4922643;28;20388;-83
2022/10/04 05:18:27;;;;;;;11.30;6.93;;;8.50;99.90;;;;;;4914270;28;20043;-83
2022/10/04 05:20:55;;;;;;;19.00;7.45;;;8.40;99.90;;;;;;4955622;28;20065;-83
2022/10/04 05:23:20;;;;;;;12.35;7.45;;;8.50;99.90;;;;;;4942707;28;20444;-83
2022/10/04 05:25:47;;;;;;;8.30;5.38;;;8.60;99.90;;;;;;4931062;29;20036;-82
2022/10/04 05:28:14;;;;;;;11.55;6.50;;;8.60;99.90;;;;;;4929277;28;20448;-82
2022/10/04 05:31:02;;;;;;;7.22;5.65;;;8.60;99.90;;;;;;4952732;28;20046;-82
2022/10/04 05:33:49;;;;;;;8.85;6.32;;;8.50;99.90;;;;;;4937773;28;20039;-83
2022/10/04 05:36:29;;;;;;;13.40;6.22;;;8.60;99.90;;;;;;4930501;28;20031;-83
2022/10/04 05:39:01;;;;;;;14.13;7.07;;;8.60;99.90;;;;;;4940037;28;20023;-83
2022/10/04 05:41:34;;;;;;;10.82;7.13;;;8.50;99.90;;;;;;4938229;28;20038;-82
2022/10/04 05:44:01;;;;;;;17.83;8.75;;;8.40;99.90;;;;;;4926246;28;20039;-83
2022/10/04 05:46:30;;;;;;;15.95;7.47;;;8.30;99.90;;;;;;4956874;28;20027;-83
2022/10/04 05:49:00;;;;;;;13.90;7.10;;;8.30;99.90;;;;;;4953431;28;20131;-83
2022/10/04 05:51:29;;;;;;;16.30;8.45;;;8.30;99.90;;;;;;4940608;28;20027;-83
2022/10/04 05:53:56;;;;;;;15.75;7.88;;;8.20;99.90;;;;;;4958824;28;20040;-83
2022/10/04 05:56:40;;;;;;;17.25;6.15;;;8.20;99.90;;;;;;4943311;28;20039;-80
2022/10/04 05:59:11;;;;;;;12.70;6.80;;;8.30;99.90;;;;;;4943955;28;20508;-80
2022/10/04 06:01:59;;;;;;;14.38;6.35;;;8.30;99.90;;;;;;4938373;28;20058;-80
2022/10/04 06:04:41;;;;;;;12.85;6.80;;;8.30;99.90;;;;;;4929065;28;20058;-81
2022/10/04 06:07:29;;;;;;;10.20;6.05;;;8.40;99.90;;;;;;4951008;28;20114;-81
2022/10/04 06:10:10;;;;;;;13.50;7.57;;;8.40;99.90;;;;;;4913043;28;20488;-81
2022/10/04 06:12:54;;;;;;;10.88;6.30;;;8.40;99.90;;;;;;4936609;28;20062;-80
2022/10/04 06:15:41;;;;;;;12.00;6.63;;;8.30;99.90;;;;;;4939971;28;20066;-81
2022/10/04 06:18:24;;;;;;;9.95;6.18;;;8.40;99.90;;;;;;4952302;28;20369;-80
2022/10/04 06:21:11;;;;;;;14.55;6.97;;;8.40;99.90;;;;;;4947466;28;20034;-81
2022/10/04 06:23:52;;;;;;;11.05;6.63;;;8.40;99.90;;;;;;4954518;28;20038;-80
2022/10/04 06:26:21;;;;;;;11.73;5.47;;;8.50;99.90;;;;;;4957681;28;20042;-80
2022/10/04 06:28:49;;;;;;;11.05;6.45;;;8.60;99.90;;;;;;4941681;28;20031;-80
2022/10/04 06:31:50;;;;;;;9.48;5.90;;;8.60;99.90;;;;;;4931343;28;20031;-80
2022/10/04 06:34:39;;;;;;;9.00;5.05;;;8.60;99.90;;;;;;4941494;28;20039;-80
2022/10/04 06:37:30;;;;;;;12.63;5.57;;;8.70;99.90;;;;;;4954523;28;20031;-80
2022/10/04 06:40:33;;;;;;;14.60;4.82;;;8.80;99.90;;;;;;4958192;28;20077;-80
2022/10/04 06:43:21;;;;;;;11.23;5.32;;;8.80;99.90;;;;;;4957927;28;20212;-80
2022/10/04 06:46:02;;;;;;;8.02;4.47;;;8.90;99.90;;;;;;4944700;28;20054;-80
2022/10/04 06:48:43;;;;;;;7.88;4.93;;;9.00;99.90;;;;;;4952972;28;20027;-80
2022/10/04 06:51:24;;;;;;;9.38;5.95;;;9.00;99.90;;;;;;4972748;28;20050;-80
2022/10/04 06:54:05;;;;;;;11.10;5.00;;;9.00;99.90;;;;;;4955372;28;20400;-80
2022/10/04 06:56:31;;;;;;;9.57;5.38;;;9.10;99.90;;;;;;4955649;28;20431;-79
2022/10/04 06:59:01;;;;;;;7.78;4.50;;;9.10;99.90;;;;;;4954487;28;20102;-80
2022/10/04 07:01:27;;;;;;;8.50;4.72;;;9.20;99.90;;;;;;4942420;28;20043;-80
2022/10/04 07:04:05;;;;;;;6.80;4.40;;;9.40;99.90;;;;;;4956219;28;20082;-80
2022/10/04 07:06:36;;;;;;;6.35;4.05;;;9.40;99.90;;;;;;4955811;28;20109;-79
2022/10/04 07:09:04;;;;;;;13.75;5.45;;;9.40;99.90;;;;;;4942556;28;20035;-80
2022/10/04 07:11:31;;;;;;;5.95;4.60;;;9.50;99.90;;;;;;4957644;28;20033;-80
2022/10/04 07:14:18;;;;;;;10.55;4.65;;;9.60;99.90;;;;;;4947627;28;20063;-79
2022/10/04 07:16:55;;;;;;;10.93;4.63;;;9.70;99.90;;;;;;4950917;28;20064;-79
2022/10/04 07:19:49;;;;;;;22.00;5.68;;;9.70;99.90;;;;;;4946086;28;20447;-79
2022/10/04 07:22:37;;;;;;;7.57;5.00;;;9.90;99.90;;;;;;4941648;28;20044;-79
2022/10/04 07:25:31;;;;;;;10.50;5.15;;;10.00;99.90;;;;;;4938221;28;20035;-79
2022/10/04 07:31:02;;;;;;;10.15;4.07;;;10.20;99.90;;;;;;4951212;28;20042;-81
2022/10/04 07:33:32;;;;;;;10.63;4.75;;;10.30;99.90;;;;;;4954686;28;20513;-79
2022/10/04 07:36:16;;;;;;;6.97;4.15;;;10.30;99.90;;;;;;4940597;28;20562;-79
2022/10/04 07:38:47;;;;;;;8.02;4.88;;;10.50;99.90;;;;;;4950176;28;20044;-79
2022/10/04 07:41:48;;;;;;;12.80;5.93;;;10.60;99.90;;;;;;4927953;28;20059;-79
2022/10/04 07:44:23;;;;;;;8.80;5.18;;;10.70;99.90;;;;;;4958801;28;20031;-80
2022/10/04 07:46:52;;;;;;;11.77;4.95;;;10.80;99.90;;;;;;4942120;28;20450;-80
2022/10/04 07:49:19;;;;;;;5.35;4.30;;;10.80;99.90;;;;;;4935403;28;20048;-80
2022/10/04 07:52:03;;;;;;;12.75;5.65;;;10.90;99.90;;;;;;4941095;28;20048;-79
2022/10/04 07:54:46;;;;;;;14.90;5.45;;;11.10;99.90;;;;;;4938629;28;20043;-79
2022/10/04 07:57:54;;;;;;;9.13;4.95;;;11.20;99.90;;;;;;4933844;28;20126;-79
2022/10/04 08:00:31;;;;;;;9.07;4.88;;;11.30;99.90;;;;;;4904639;29;20039;-80
2022/10/04 08:03:26;;;;;;;11.80;4.85;;;11.40;99.90;;;;;;4871882;29;20119;-79
2022/10/04 08:06:15;;;;;;;7.32;4.65;;;11.40;99.90;;;;;;4916434;28;20055;-80
2022/10/04 08:09:17;;;;;;;8.18;4.32;;;11.50;99.90;;;;;;4940402;28;20182;-79
2022/10/04 08:11:52;;;;;;;9.32;4.50;;;11.70;99.90;;;;;;4951412;28;20619;-79
2022/10/04 08:14:36;;;;;;;11.02;4.97;;;11.80;99.90;;;;;;4930729;28;20032;-80
2022/10/04 08:17:17;;;;;;;7.22;4.72;;;11.80;99.90;;;;;;4950679;28;20602;-80
2022/10/04 08:20:07;;;;;;;8.85;4.07;;;11.90;99.90;;;;;;4944417;28;20038;-79
2022/10/04 08:22:57;;;;;;;7.28;4.57;;;12.00;99.90;;;;;;4944320;28;20495;-80
2022/10/04 08:25:33;;;;;;;10.40;4.68;;;12.10;99.90;;;;;;4954529;28;20202;-80
2022/10/04 08:31:20;;;;;;;7.28;4.10;;;12.30;99.90;;;;;;4953730;28;20074;-79
2022/10/04 08:34:07;;;;;;;6.63;4.60;;;12.60;99.90;;;;;;4941612;28;20476;-81
2022/10/04 08:36:45;;;;;;;6.88;3.92;;;12.60;99.90;;;;;;4955407;28;20031;-79
2022/10/04 08:39:57;;;;;;;6.13;4.15;;;12.70;99.90;;;;;;4937400;28;20023;-80
2022/10/04 08:42:52;;;;;;;10.00;3.88;;;12.50;99.90;;;;;;4933633;28;20133;-79
2022/10/04 08:45:36;;;;;;;7.25;4.00;;;12.70;99.90;;;;;;4962823;28;20035;-80
2022/10/04 08:48:08;;;;;;;9.10;4.35;;;13.10;99.90;;;;;;4948284;28;20038;-80
2022/10/04 08:51:02;;;;;;;7.22;4.57;;;13.20;99.90;;;;;;4956525;28;20499;-80
2022/10/04 08:53:47;;;;;;;10.43;3.90;;;13.30;99.90;;;;;;4963573;28;20045;-79
2022/10/04 08:56:41;;;;;;;9.30;3.95;;;13.70;99.90;;;;;;4974627;28;20024;-80
2022/10/04 08:59:31;;;;;;;6.68;3.30;;;13.60;99.90;;;;;;4940535;28;20561;-79
2022/10/04 09:02:05;;;;;;;8.00;3.90;;;13.80;99.90;;;;;;4949511;28;20562;-79
2022/10/04 09:04:38;;;;;;;5.85;3.50;;;13.90;99.90;;;;;;4956359;28;20031;-79
2022/10/04 09:07:41;;;;;;;12.38;3.70;;;14.10;99.90;;;;;;4956427;28;20658;-80
2022/10/04 09:10:28;;;;;;;7.45;4.07;;;14.40;99.90;;;;;;4960493;28;20292;-79
2022/10/04 09:13:13;;;;;;;6.43;3.78;;;14.50;99.90;;;;;;4959389;28;20019;-79
2022/10/04 09:15:42;;;;;;;6.95;3.80;;;14.40;99.90;;;;;;4948687;28;20039;-80
2022/10/04 09:18:21;;;;;;;6.82;3.63;;;14.70;99.90;;;;;;4977322;28;20038;-82
2022/10/04 09:21:09;;;;;;;8.70;3.95;;;14.80;99.90;;;;;;4948063;28;20062;-82
2022/10/04 09:24:08;;;;;;;5.53;4.10;;;15.20;99.90;;;;;;4947060;28;20035;-80
2022/10/04 09:26:40;;;;;;;9.88;3.60;;;15.40;99.90;;;;;;4960670;28;20070;-81
2022/10/04 09:29:31;;;;;;;9.82;3.97;;;15.50;99.90;;;;;;4955932;28;20035;-81
2022/10/04 09:32:08;;;;;;;11.88;3.60;;;15.50;99.90;;;;;;4944845;28;20396;-80
2022/10/04 09:34:59;;;;;;;7.00;3.42;;;15.70;99.90;;;;;;4958570;28;20383;-81
2022/10/04 09:38:06;;;;;;;3.83;3.20;;;15.90;99.90;;;;;;4958699;28;20058;-80
2022/10/04 09:40:41;;;;;;;5.35;3.35;;;16.10;99.90;;;;;;4945322;28;20041;-80
2022/10/04 09:43:28;;;;;;;11.40;3.63;;;16.20;99.90;;;;;;4964635;28;20467;-80
2022/10/04 09:46:23;;;;;;;8.45;4.03;;;16.30;99.90;;;;;;4958308;28;20031;-80
2022/10/04 09:49:06;;;;;;;6.25;2.92;;;16.90;99.90;;;;;;4965738;28;20097;-80
2022/10/04 09:52:11;;;;;;;6.07;3.17;;;17.00;99.90;;;;;;4958238;28;20042;-80
2022/10/04 09:55:14;;;;;;;6.85;3.58;;;16.90;99.90;;;;;;4939759;28;20039;-80
2022/10/04 09:57:40;;;;;;;7.18;4.13;;;17.20;99.90;;;;;;4961912;28;20089;-80
2022/10/04 10:00:27;;;;;;;7.32;3.13;;;17.80;99.90;;;;;;4958012;28;20035;-80
2022/10/04 10:03:18;;;;;;;7.68;3.20;;;17.90;99.90;;;;;;4957538;28;20487;-80
2022/10/04 10:05:48;;;;;;;7.97;4.72;;;18.10;99.90;;;;;;4960776;28;20027;-80
2022/10/04 10:08:35;;;;;;;7.22;3.10;;;18.00;99.90;;;;;;4956742;28;20368;-81
2022/10/04 10:14:18;;;;;;;7.35;2.83;;;18.10;99.90;;;;;;4955161;28;20074;-80
2022/10/04 10:17:23;;;;;;;6.00;2.67;;;18.60;99.90;;;;;;4963974;28;20115;-81
2022/10/04 10:20:26;;;;;;;8.07;3.20;;;18.40;99.90;;;;;;4954222;28;20037;-81
2022/10/04 10:23:33;;;;;;;4.72;3.08;;;18.60;99.90;;;;;;4956395;28;20035;-81
2022/10/04 10:26:21;;;;;;;;;;;18.90;99.90;;;;;;4954635;28;20035;-81
2022/10/04 10:29:06;;;;;;;5.63;2.33;;;19.30;99.90;;;;;;4958548;28;19918;-81
2022/10/04 10:31:55;;;;;;;6.15;2.65;;;19.70;99.90;;;;;;4960728;28;20058;-81
2022/10/04 10:34:41;;;;;;;6.78;2.55;;;19.60;99.90;;;;;;4923978;28;20039;-81
2022/10/04 10:37:15;;;;;;;9.15;2.58;;;20.10;99.90;;;;;;4938571;28;20078;-81
2022/10/04 10:40:06;;;;;;;8.73;2.83;;;19.90;99.90;;;;;;4932597;28;20033;-82
2022/10/04 10:43:02;;;;;;;8.80;2.47;;;20.40;99.90;;;;;;4962979;28;20674;-81
2022/10/04 10:46:05;;;;;;;4.45;2.45;;;20.50;99.90;;;;;;4927610;28;20039;-81
2022/10/04 10:49:08;;;;;;;5.80;2.72;;;21.30;99.90;;;;;;4961471;28;20118;-82
2022/10/04 10:51:54;;;;;;;7.97;2.65;;;20.90;99.30;;;;;;4933697;29;20031;-82
2022/10/04 10:54:48;;;;;;;8.35;3.13;;;20.90;99.50;;;;;;4953009;28;20562;-82
2022/10/04 10:57:34;;;;;;;5.05;2.47;;;20.60;99.90;;;;;;4941338;28;20072;-82
2022/10/04 11:00:17;;;;;;;9.30;2.85;;;21.10;99.50;;;;;;4949086;28;20035;-82
2022/10/04 11:03:04;;;;;;;7.40;2.20;;;21.00;99.40;;;;;;4955411;28;20032;-82
2022/10/04 11:05:51;;;;;;;4.38;2.10;;;21.20;99.60;;;;;;4929155;28;20039;-82
2022/10/04 11:08:33;;;;;;;3.28;2.05;;;20.90;99.90;;;;;;4942390;28;20076;-81
2022/10/04 11:11:14;;;;;;;3.45;2.28;;;20.90;99.80;;;;;;4936255;28;20032;-82
2022/10/04 11:13:47;;;;;;;8.57;2.45;;;21.40;98.60;;;;;;4951863;28;20178;-82
2022/10/04 11:16:42;;;;;;;2.75;1.80;;;21.70;95.80;;;;;;4974989;28;20114;-82
2022/10/04 11:19:36;;;;;;;4.38;2.08;;;22.00;97.20;;;;;;4962549;28;20102;-82
2022/10/04 11:22:29;;;;;;;5.55;2.40;;;21.80;98.30;;;;;;4960297;28;20031;-84
2022/10/04 11:25:06;;;;;;;3.83;2.05;;;21.90;97.40;;;;;;4962852;28;20023;-83
2022/10/04 11:28:04;;;;;;;4.82;2.17;;;22.10;95.80;;;;;;4960659;28;20045;-81
2022/10/04 11:30:46;;;;;;;4.22;1.90;;;22.20;95.40;;;;;;4951204;28;20050;-81
2022/10/04 11:33:30;;;;;;;4.45;2.10;;;22.20;95.20;;;;;;4944846;28;20081;-81
2022/10/04 11:36:24;;;;;;;5.68;2.22;;;22.00;95.00;;;;;;4957049;28;20039;-82
2022/10/04 11:39:14;;;;;;;3.10;2.28;;;22.60;94.10;;;;;;4926601;28;20028;-81
2022/10/04 11:41:55;;;;;;;4.40;2.30;;;22.20;94.60;;;;;;4939252;28;20115;-82
2022/10/04 11:44:37;;;;;;;4.88;2.20;;;22.50;93.10;;;;;;4932205;28;20504;-82
2022/10/04 11:47:27;;;;;;;4.57;1.73;;;22.60;93.00;;;;;;4971330;28;20040;-82
2022/10/04 11:50:19;;;;;;;6.15;2.08;;;23.00;91.70;;;;;;4963738;28;20027;-83
2022/10/04 11:53:03;;;;;;;3.67;1.98;;;23.10;91.40;;;;;;4961560;28;20549;-82
2022/10/04 11:55:34;;;;;;;3.95;2.10;;;23.20;91.00;;;;;;4974477;28;20050;-84
2022/10/04 11:58:22;;;;;;;2.50;1.95;;;23.20;91.00;;;;;;4946113;28;20487;-82
2022/10/04 12:01:10;;;;;;;8.10;2.22;;;23.00;92.40;;;;;;4943746;28;20034;-82
2022/10/04 12:04:03;;;;;;;4.88;2.40;;;23.10;91.30;;;;;;4958045;28;21155;-82
2022/10/04 12:07:01;;;;;;;7.35;1.60;;;23.10;91.20;;;;;;4962432;28;20038;-82
2022/10/04 12:09:48;;;;;;;4.45;2.20;;;23.10;91.10;;;;;;4941723;28;20054;-82
2022/10/04 12:12:39;;;;;;;3.08;1.85;;;22.80;92.30;;;;;;4959462;28;20027;-82
2022/10/04 12:15:31;;;;;;;4.72;2.05;;;22.80;92.40;;;;;;4944680;28;20509;-83
2022/10/04 12:18:16;;;;;;;5.65;2.33;;;22.60;92.80;;;;;;4963999;28;20054;-82
2022/10/04 12:21:13;;;;;;;6.32;2.28;;;23.10;91.70;;;;;;4958620;28;20038;-83
2022/10/04 12:23:50;;;;;;;5.90;1.88;;;23.60;90.80;;;;;;4973554;28;20035;-82
2022/10/04 12:26:21;;;;;;;4.53;1.98;;;23.60;89.70;;;;;;4958673;28;20510;-83
2022/10/04 12:29:12;;;;;;;3.38;2.00;;;23.70;88.20;;;;;;4958912;28;20038;-83
2022/10/04 12:31:48;;;;;;;4.35;2.17;;;23.70;87.10;;;;;;4958938;28;20050;-83
2022/10/04 12:34:50;;;;;;;3.60;1.55;;;23.70;86.80;;;;;;4942808;28;20042;-83
2022/10/04 12:37:22;;;;;;;4.25;1.92;;;23.70;87.90;;;;;;4959226;28;20061;-83
2022/10/04 12:40:08;;;;;;;6.18;1.63;;;23.60;85.20;;;;;;4958548;28;20035;-83
2022/10/04 12:42:45;;;;;;;6.43;2.00;;;24.00;84.40;;;;;;4957036;28;20558;-83
2022/10/04 12:45:26;;;;;;;5.57;2.03;;;24.00;84.10;;;;;;4957818;28;20395;-82
2022/10/04 12:48:10;;;;;;;4.15;1.90;;;24.10;84.40;;;;;;4949920;28;20035;-82
2022/10/04 12:50:47;;;;;;;3.78;1.67;;;24.20;84.10;;;;;;4960418;28;20031;-82
2022/10/04 12:53:33;;;;;;;2.72;1.70;;;24.10;82.70;;;;;;4960482;28;20031;-84
2022/10/04 12:56:21;;;;;;;6.03;1.75;;;23.80;85.10;;;;;;4954790;28;20495;-83
2022/10/04 12:59:05;;;;;;;8.45;2.33;;;23.50;87.20;;;;;;4959696;28;20047;-83
2022/10/04 13:01:55;;;;;;;6.70;1.80;;;23.80;86.20;;;;;;4959228;28;20081;-83
2022/10/04 13:04:45;;;;;;;3.65;1.65;;;24.00;84.30;;;;;;4960422;28;20502;-83
2022/10/04 13:07:44;;;;;;;2.78;1.70;;;24.20;82.60;;;;;;4960866;28;20091;-83
2022/10/04 13:10:28;;;;;;;3.67;1.75;;;24.10;82.70;;;;;;4915462;28;20031;-83
2022/10/04 13:13:28;;;;;;;5.22;1.80;;;24.20;81.00;;;;;;4957465;28;20395;-82
2022/10/04 13:16:20;;;;;;;5.60;1.70;;;24.20;78.40;;;;;;4946310;28;20046;-84
2022/10/04 13:18:49;;;;;;;5.22;1.98;;;24.30;78.10;;;;;;4953307;28;20074;-84
2022/10/04 13:21:47;;;;;;;3.58;2.03;;;24.20;78.30;;;;;;4957780;28;20492;-83
2022/10/04 13:24:56;;;;;;;4.45;1.95;;;23.90;80.00;;;;;;4939760;28;20082;-84
2022/10/04 13:27:46;;;;;;;4.35;1.48;;;23.70;83.30;;;;;;4954926;28;20053;-84
2022/10/04 13:30:25;;;;;;;3.83;1.70;;;23.90;80.30;;;;;;4966292;28;20034;-84
2022/10/04 13:33:09;;;;;;;3.03;1.40;;;24.00;79.10;;;;;;4961102;28;20675;-83
2022/10/04 13:35:39;;;;;;;2.85;1.45;;;24.00;78.90;;;;;;4955272;28;20039;-83
2022/10/04 13:38:24;;;;;;;7.05;2.13;;;24.10;78.00;;;;;;4956955;28;20093;-83
2022/10/04 13:41:03;;;;;;;4.07;1.88;;;24.20;75.80;;;;;;4956752;28;20035;-82
2022/10/04 13:43:36;;;;;;;4.03;1.88;;;24.10;77.90;;;;;;4939629;28;20399;-84
2022/10/04 13:46:20;;;;;;;3.95;1.80;;;23.70;79.60;;;;;;4958590;28;20085;-84
2022/10/04 13:49:05;;;;;;;3.60;2.05;;;23.30;79.60;;;;;;4944172;28;20035;-85
2022/10/04 13:51:40;;;;;;;2.67;1.65;;;24.00;77.70;;;;;;4963243;28;20028;-84
2022/10/04 13:57:20;;;;;;;2.53;1.70;;;24.30;74.50;;;;;;4958795;28;20038;-84
2022/10/04 14:00:00;;;;;;;3.45;2.08;;;24.20;75.80;;;;;;4959352;28;20046;-84
2022/10/04 14:02:50;;;;;;;2.72;1.80;;;24.10;75.10;;;;;;4941393;28;20367;-84
2022/10/04 14:05:47;;;;;;;6.28;2.10;;;23.90;76.40;;;;;;4958132;28;20035;-84